createdAt,value
2018-11-10T00:00:09.677Z,8.90
2018-11-10T00:00:42.776Z,8.80
2018-11-10T00:01:15.489Z,8.80
2018-11-10T00:01:48.097Z,8.80
2018-11-10T00:02:20.742Z,8.80
2018-11-10T00:02:53.720Z,8.80
2018-11-10T00:03:26.344Z,8.80
2018-11-10T00:03:59.152Z,8.80
2018-11-10T00:04:31.852Z,8.80
2018-11-10T00:05:05.179Z,8.80
2018-11-10T00:05:37.825Z,8.80
2018-11-10T00:06:10.546Z,8.90
2018-11-10T00:06:43.122Z,8.90
2018-11-10T00:07:16.039Z,8.90
2018-11-10T00:07:48.642Z,8.90
2018-11-10T00:08:21.489Z,8.90
2018-11-10T00:08:54.138Z,8.90
2018-11-10T00:09:26.861Z,8.90
2018-11-10T00:09:59.622Z,8.90
2018-11-10T00:10:32.321Z,8.90
2018-11-10T00:11:05.136Z,9.00
2018-11-10T00:11:37.868Z,9.00
2018-11-10T00:12:10.496Z,9.00
2018-11-10T00:12:43.345Z,8.90
2018-11-10T00:13:15.999Z,8.90
2018-11-10T00:13:48.595Z,8.90
2018-11-10T00:14:21.279Z,9.00
2018-11-10T00:14:53.962Z,9.00
2018-11-10T00:15:26.717Z,9.00
2018-11-10T00:15:59.335Z,9.00
2018-11-10T00:16:32.035Z,9.00
2018-11-10T00:17:05.430Z,9.00
2018-11-10T00:17:38.046Z,9.00
2018-11-10T00:18:10.688Z,9.00
2018-11-10T00:18:43.278Z,8.90
2018-11-10T00:19:15.874Z,8.90
2018-11-10T00:19:48.557Z,9.00
2018-11-10T00:20:21.187Z,9.00
2018-11-10T00:20:53.825Z,9.00
2018-11-10T00:21:26.556Z,9.00
2018-11-10T00:21:59.161Z,9.00
2018-11-10T00:22:31.831Z,9.00
2018-11-10T00:23:04.528Z,9.00
2018-11-10T00:23:37.218Z,9.00
2018-11-10T00:24:09.889Z,9.00
2018-11-10T00:24:42.618Z,9.00
2018-11-10T00:25:15.653Z,9.00
2018-11-10T00:25:48.285Z,9.00
2018-11-10T00:26:21.004Z,9.00
2018-11-10T00:26:53.698Z,9.00
2018-11-10T00:27:26.410Z,9.00
2018-11-10T00:27:59.019Z,9.00
2018-11-10T00:28:31.680Z,9.00
2018-11-10T00:29:04.469Z,9.00
2018-11-10T00:29:37.191Z,9.00
2018-11-10T00:30:12.278Z,9.00
2018-11-10T00:30:44.969Z,9.00
2018-11-10T00:31:17.627Z,9.00
2018-11-10T00:31:50.227Z,9.00
2018-11-10T00:32:22.869Z,9.00
2018-11-10T00:32:55.496Z,9.00
2018-11-10T00:33:28.176Z,9.00
2018-11-10T00:34:00.880Z,9.00
2018-11-10T00:34:33.503Z,9.00
2018-11-10T00:35:06.328Z,9.10
2018-11-10T00:35:39.031Z,9.10
2018-11-10T00:36:11.799Z,9.10
2018-11-10T00:36:44.946Z,9.10
2018-11-10T00:37:17.547Z,9.10
2018-11-10T00:37:50.155Z,9.10
2018-11-10T00:38:22.775Z,9.10
2018-11-10T00:38:59.111Z,9.10
2018-11-10T00:39:31.748Z,9.10
2018-11-10T00:40:05.299Z,9.10
2018-11-10T00:40:37.900Z,9.10
2018-11-10T00:41:10.525Z,9.10
2018-11-10T00:41:43.191Z,9.20
2018-11-10T00:42:15.848Z,9.10
2018-11-10T00:42:48.478Z,9.20
2018-11-10T00:43:22.730Z,9.10
2018-11-10T00:43:55.374Z,9.20
2018-11-10T00:44:27.997Z,9.20
2018-11-10T00:45:00.628Z,9.20
2018-11-10T00:45:33.246Z,9.20
2018-11-10T00:46:05.919Z,9.20
2018-11-10T00:46:38.570Z,9.20
2018-11-10T00:47:11.245Z,9.30
2018-11-10T00:47:43.894Z,9.20
2018-11-10T00:48:16.526Z,9.30
2018-11-10T00:48:49.200Z,9.30
2018-11-10T00:49:21.853Z,9.30
2018-11-10T00:49:54.475Z,9.30
2018-11-10T00:50:27.083Z,9.30
2018-11-10T00:50:59.720Z,9.20
2018-11-10T00:51:32.335Z,9.20
2018-11-10T00:52:05.003Z,9.20
2018-11-10T00:52:37.957Z,9.20
2018-11-10T00:53:10.610Z,9.10
2018-11-10T00:53:43.280Z,9.10
2018-11-10T00:54:15.994Z,9.10
2018-11-10T00:54:48.632Z,9.10
2018-11-10T00:55:21.327Z,9.10
2018-11-10T00:55:53.970Z,9.10
2018-11-10T00:56:26.863Z,9.10
2018-11-10T00:56:59.523Z,9.10
2018-11-10T00:57:32.250Z,9.10
2018-11-10T00:58:05.007Z,9.10
2018-11-10T00:58:37.620Z,9.10
2018-11-10T00:59:10.439Z,9.10
2018-11-10T00:59:43.120Z,9.10
2018-11-10T01:00:15.785Z,9.10
2018-11-10T01:00:48.439Z,9.10
2018-11-10T01:01:21.106Z,9.10
2018-11-10T01:01:54.465Z,9.10
2018-11-10T01:02:27.095Z,9.10
2018-11-10T01:02:59.714Z,9.10
2018-11-10T01:03:32.327Z,9.10
2018-11-10T01:04:05.317Z,9.10
2018-11-10T01:04:37.960Z,9.10
2018-11-10T01:05:10.634Z,9.10
2018-11-10T01:05:43.242Z,9.10
2018-11-10T01:06:15.830Z,9.10
2018-11-10T01:06:48.427Z,9.10
2018-11-10T01:07:21.042Z,9.10
2018-11-10T01:07:53.627Z,9.10
2018-11-10T01:08:26.218Z,9.10
2018-11-10T01:08:58.799Z,9.10
2018-11-10T01:09:31.425Z,9.10
2018-11-10T01:10:05.184Z,9.10
2018-11-10T01:10:37.835Z,9.00
2018-11-10T01:11:10.438Z,9.00
2018-11-10T01:11:43.052Z,9.00
2018-11-10T01:12:15.632Z,9.00
2018-11-10T01:12:48.269Z,9.00
2018-11-10T01:13:20.904Z,9.00
2018-11-10T01:13:53.556Z,9.00
2018-11-10T01:14:26.138Z,8.90
2018-11-10T01:14:58.797Z,8.90
2018-11-10T01:15:31.389Z,8.80
2018-11-10T01:16:04.206Z,8.80
2018-11-10T01:16:36.795Z,8.80
2018-11-10T01:17:09.421Z,8.80
2018-11-10T01:17:42.547Z,8.80
2018-11-10T01:18:15.175Z,8.90
2018-11-10T01:18:47.846Z,8.80
2018-11-10T01:19:20.440Z,8.80
2018-11-10T01:19:53.083Z,8.80
2018-11-10T01:20:25.706Z,8.80
2018-11-10T01:20:58.370Z,8.80
2018-11-10T01:21:31.019Z,8.80
2018-11-10T01:22:03.720Z,8.80
2018-11-10T01:22:36.329Z,8.80
2018-11-10T01:23:08.959Z,8.80
2018-11-10T01:23:41.608Z,8.80
2018-11-10T01:24:14.262Z,8.80
2018-11-10T01:24:46.871Z,8.80
2018-11-10T01:25:19.470Z,8.80
2018-11-10T01:25:52.072Z,8.80
2018-11-10T01:26:24.667Z,8.70
2018-11-10T01:26:57.276Z,8.70
2018-11-10T01:27:29.927Z,8.80
2018-11-10T01:28:02.619Z,8.70
2018-11-10T01:28:35.146Z,8.70
2018-11-10T01:29:07.775Z,8.70
2018-11-10T01:29:40.391Z,8.70
2018-11-10T01:30:14.358Z,8.70
2018-11-10T01:30:46.934Z,8.70
2018-11-10T01:31:19.527Z,8.80
2018-11-10T01:31:52.119Z,8.80
2018-11-10T01:32:24.817Z,8.80
2018-11-10T01:32:57.437Z,8.80
2018-11-10T01:33:30.020Z,8.80
2018-11-10T01:34:02.650Z,8.80
2018-11-10T01:34:35.251Z,8.80
2018-11-10T01:35:07.988Z,8.80
2018-11-10T01:35:40.600Z,8.80
2018-11-10T01:36:13.206Z,8.80
2018-11-10T01:36:45.884Z,8.80
2018-11-10T01:37:18.520Z,8.80
2018-11-10T01:37:51.136Z,8.80
2018-11-10T01:38:23.730Z,8.80
2018-11-10T01:38:56.370Z,8.80
2018-11-10T01:39:28.973Z,8.90
2018-11-10T01:40:01.579Z,8.90
2018-11-10T01:40:34.200Z,8.90
2018-11-10T01:41:06.879Z,8.90
2018-11-10T01:41:39.679Z,8.90
2018-11-10T01:42:12.259Z,8.90
2018-11-10T01:42:44.886Z,8.90
2018-11-10T01:43:17.538Z,8.90
2018-11-10T01:43:50.142Z,9.00
2018-11-10T01:44:22.746Z,8.90
2018-11-10T01:44:55.383Z,8.90
2018-11-10T01:45:27.953Z,8.90
2018-11-10T01:46:00.544Z,8.90
2018-11-10T01:46:33.146Z,8.90
2018-11-10T01:47:05.758Z,8.90
2018-11-10T01:47:38.368Z,8.90
2018-11-10T01:48:11.003Z,8.90
2018-11-10T01:48:43.642Z,8.90
2018-11-10T01:49:16.230Z,8.90
2018-11-10T01:49:48.854Z,8.90
2018-11-10T01:50:21.457Z,8.90
2018-11-10T01:50:54.058Z,8.90
2018-11-10T01:51:26.656Z,8.90
2018-11-10T01:51:59.226Z,8.90
2018-11-10T01:52:31.811Z,8.90
2018-11-10T01:53:04.447Z,8.90
2018-11-10T01:53:37.029Z,8.90
2018-11-10T01:54:09.672Z,8.90
2018-11-10T01:54:42.291Z,8.80
2018-11-10T01:55:14.961Z,8.90
2018-11-10T01:55:47.546Z,8.90
2018-11-10T01:56:20.135Z,8.90
2018-11-10T01:56:52.707Z,8.80
2018-11-10T01:57:25.322Z,8.90
2018-11-10T01:57:57.914Z,8.80
2018-11-10T01:58:30.541Z,8.80
2018-11-10T01:59:03.186Z,8.80
2018-11-10T01:59:35.863Z,8.80
2018-11-10T02:00:11.969Z,8.80
2018-11-10T02:00:44.555Z,8.80
2018-11-10T02:01:17.170Z,8.80
2018-11-10T02:01:49.780Z,8.90
2018-11-10T02:02:22.379Z,8.90
2018-11-10T02:02:54.964Z,8.90
2018-11-10T02:03:27.569Z,8.90
2018-11-10T02:04:00.200Z,8.90
2018-11-10T02:04:32.826Z,8.90
2018-11-10T02:05:05.735Z,8.90
2018-11-10T02:05:38.302Z,8.90
2018-11-10T02:06:10.972Z,9.00
2018-11-10T02:06:43.693Z,9.00
2018-11-10T02:07:16.211Z,9.00
2018-11-10T02:07:48.818Z,9.00
2018-11-10T02:08:21.406Z,9.10
2018-11-10T02:08:53.986Z,9.10
2018-11-10T02:09:26.563Z,9.20
2018-11-10T02:09:59.155Z,9.10
2018-11-10T02:10:31.756Z,9.10
2018-11-10T02:11:04.482Z,9.10
2018-11-10T02:11:37.136Z,9.10
2018-11-10T02:12:09.828Z,9.00
2018-11-10T02:12:42.527Z,9.00
2018-11-10T02:13:15.132Z,9.00
2018-11-10T02:13:47.723Z,9.00
2018-11-10T02:14:20.319Z,9.00
2018-11-10T02:14:52.935Z,9.00
2018-11-10T02:15:25.557Z,9.00
2018-11-10T02:15:58.219Z,9.00
2018-11-10T02:16:30.798Z,9.10
2018-11-10T02:17:03.463Z,9.10
2018-11-10T02:17:36.035Z,9.10
2018-11-10T02:18:08.665Z,9.10
2018-11-10T02:18:41.253Z,9.10
2018-11-10T02:19:13.863Z,9.20
2018-11-10T02:19:46.500Z,9.10
2018-11-10T02:20:19.131Z,9.20
2018-11-10T02:20:51.746Z,9.10
2018-11-10T02:21:24.350Z,9.10
2018-11-10T02:21:57.031Z,9.10
2018-11-10T02:22:29.694Z,9.10
2018-11-10T02:23:02.369Z,9.10
2018-11-10T02:23:35.008Z,9.10
2018-11-10T02:24:07.638Z,9.10
2018-11-10T02:24:40.251Z,9.10
2018-11-10T02:25:13.118Z,9.10
2018-11-10T02:25:45.809Z,9.20
2018-11-10T02:26:18.475Z,9.20
2018-11-10T02:26:51.156Z,9.20
2018-11-10T02:27:24.283Z,9.20
2018-11-10T02:27:56.907Z,9.30
2018-11-10T02:28:29.563Z,9.30
2018-11-10T02:29:02.265Z,9.30
2018-11-10T02:29:34.939Z,9.20
2018-11-10T02:30:09.019Z,9.20
2018-11-10T02:30:41.711Z,9.20
2018-11-10T02:31:14.353Z,9.20
2018-11-10T02:31:46.937Z,9.20
2018-11-10T02:32:19.984Z,9.20
2018-11-10T02:32:52.571Z,9.20
2018-11-10T02:33:25.159Z,9.20
2018-11-10T02:33:57.755Z,9.10
2018-11-10T02:34:30.343Z,9.10
2018-11-10T02:35:02.991Z,9.10
2018-11-10T02:35:35.695Z,9.10
2018-11-10T02:36:08.319Z,9.20
2018-11-10T02:36:40.923Z,9.30
2018-11-10T02:37:13.540Z,9.30
2018-11-10T02:37:46.183Z,9.40
2018-11-10T02:38:18.772Z,9.30
2018-11-10T02:38:51.515Z,9.30
2018-11-10T02:39:24.012Z,9.30
2018-11-10T02:39:56.639Z,9.30
2018-11-10T02:40:29.275Z,9.30
2018-11-10T02:41:01.887Z,9.30
2018-11-10T02:41:34.580Z,9.20
2018-11-10T02:42:07.206Z,9.20
2018-11-10T02:42:39.786Z,9.20
2018-11-10T02:43:12.391Z,9.20
2018-11-10T02:43:45.003Z,9.20
2018-11-10T02:44:17.610Z,9.20
2018-11-10T02:44:50.238Z,9.20
2018-11-10T02:45:22.874Z,9.10
2018-11-10T02:45:55.484Z,9.10
2018-11-10T02:46:28.100Z,9.10
2018-11-10T02:47:00.700Z,9.20
2018-11-10T02:47:33.315Z,9.20
2018-11-10T02:48:05.919Z,9.30
2018-11-10T02:48:38.530Z,9.30
2018-11-10T02:49:11.111Z,9.20
2018-11-10T02:49:43.730Z,9.20
2018-11-10T02:50:16.364Z,9.20
2018-11-10T02:50:48.959Z,9.20
2018-11-10T02:51:21.570Z,9.20
2018-11-10T02:51:54.211Z,9.10
2018-11-10T02:52:26.826Z,9.10
2018-11-10T02:52:59.422Z,9.10
2018-11-10T02:53:32.014Z,9.20
2018-11-10T02:54:04.899Z,9.20
2018-11-10T02:54:37.567Z,9.20
2018-11-10T02:55:10.785Z,9.20
2018-11-10T02:55:43.376Z,9.20
2018-11-10T02:56:16.000Z,9.30
2018-11-10T02:56:48.590Z,9.20
2018-11-10T02:57:21.222Z,9.20
2018-11-10T02:57:53.831Z,9.20
2018-11-10T02:58:26.455Z,9.20
2018-11-10T02:58:59.072Z,9.20
2018-11-10T02:59:31.675Z,9.20
2018-11-10T03:00:04.616Z,9.30
2018-11-10T03:00:37.193Z,9.30
2018-11-10T03:01:09.804Z,9.30
2018-11-10T03:01:42.472Z,9.30
2018-11-10T03:02:15.092Z,9.40
2018-11-10T03:02:47.682Z,9.30
2018-11-10T03:03:20.272Z,9.30
2018-11-10T03:03:52.881Z,9.30
2018-11-10T03:04:25.513Z,9.30
2018-11-10T03:04:58.138Z,9.30
2018-11-10T03:05:30.756Z,9.20
2018-11-10T03:06:03.450Z,9.30
2018-11-10T03:06:36.059Z,9.30
2018-11-10T03:07:08.671Z,9.20
2018-11-10T03:07:41.263Z,9.20
2018-11-10T03:08:13.862Z,9.20
2018-11-10T03:08:46.464Z,9.20
2018-11-10T03:09:19.093Z,9.20
2018-11-10T03:09:51.690Z,9.20
2018-11-10T03:10:24.283Z,9.30
2018-11-10T03:10:56.970Z,9.30
2018-11-10T03:11:29.558Z,9.30
2018-11-10T03:12:02.139Z,9.30
2018-11-10T03:12:34.755Z,9.30
2018-11-10T03:13:07.827Z,9.30
2018-11-10T03:13:40.427Z,9.30
2018-11-10T03:14:13.069Z,9.30
2018-11-10T03:14:45.716Z,9.30
2018-11-10T03:15:18.314Z,9.20
2018-11-10T03:15:50.938Z,9.20
2018-11-10T03:16:23.636Z,9.20
2018-11-10T03:16:56.168Z,9.20
2018-11-10T03:17:28.766Z,9.20
2018-11-10T03:18:01.388Z,9.30
2018-11-10T03:18:34.020Z,9.30
2018-11-10T03:19:06.595Z,9.40
2018-11-10T03:19:39.194Z,9.30
2018-11-10T03:20:13.388Z,9.30
2018-11-10T03:20:46.008Z,9.30
2018-11-10T03:21:18.615Z,9.20
2018-11-10T03:21:51.196Z,9.20
2018-11-10T03:22:23.832Z,9.20
2018-11-10T03:22:56.477Z,9.20
2018-11-10T03:23:29.063Z,9.20
2018-11-10T03:24:01.676Z,9.20
2018-11-10T03:24:34.263Z,9.10
2018-11-10T03:25:06.843Z,9.10
2018-11-10T03:25:39.427Z,9.20
2018-11-10T03:26:12.055Z,9.10
2018-11-10T03:26:44.708Z,9.20
2018-11-10T03:27:17.290Z,9.20
2018-11-10T03:27:49.902Z,9.20
2018-11-10T03:28:22.484Z,9.20
2018-11-10T03:28:55.071Z,9.30
2018-11-10T03:29:27.666Z,9.30
2018-11-10T03:30:00.268Z,9.20
2018-11-10T03:30:32.895Z,9.20
2018-11-10T03:31:06.091Z,9.20
2018-11-10T03:31:38.663Z,9.20
2018-11-10T03:32:11.275Z,9.20
2018-11-10T03:32:43.901Z,9.20
2018-11-10T03:33:16.487Z,9.20
2018-11-10T03:33:49.079Z,9.20
2018-11-10T03:34:21.670Z,9.10
2018-11-10T03:34:54.250Z,9.10
2018-11-10T03:35:26.846Z,9.10
2018-11-10T03:35:59.531Z,9.10
2018-11-10T03:36:32.157Z,9.10
2018-11-10T03:37:04.907Z,9.10
2018-11-10T03:37:37.600Z,9.10
2018-11-10T03:38:10.232Z,9.10
2018-11-10T03:38:42.865Z,9.10
2018-11-10T03:39:15.591Z,9.10
2018-11-10T03:39:48.229Z,9.20
2018-11-10T03:40:20.830Z,9.30
2018-11-10T03:40:53.547Z,9.30
2018-11-10T03:41:26.179Z,9.30
2018-11-10T03:41:58.759Z,9.30
2018-11-10T03:42:31.322Z,9.30
2018-11-10T03:43:03.955Z,9.30
2018-11-10T03:43:36.675Z,9.30
2018-11-10T03:44:09.646Z,9.30
2018-11-10T03:44:42.234Z,9.30
2018-11-10T03:45:14.864Z,9.20
2018-11-10T03:45:47.491Z,9.20
2018-11-10T03:46:20.090Z,9.20
2018-11-10T03:46:52.699Z,9.20
2018-11-10T03:47:25.329Z,9.20
2018-11-10T03:47:57.915Z,9.20
2018-11-10T03:48:30.617Z,9.20
2018-11-10T03:49:03.252Z,9.20
2018-11-10T03:49:35.872Z,9.20
2018-11-10T03:50:09.456Z,9.20
2018-11-10T03:50:42.112Z,9.20
2018-11-10T03:51:14.682Z,9.20
2018-11-10T03:51:47.309Z,9.20
2018-11-10T03:52:19.907Z,9.20
2018-11-10T03:52:52.486Z,9.20
2018-11-10T03:53:25.104Z,9.20
2018-11-10T03:53:57.737Z,9.20
2018-11-10T03:54:30.343Z,9.20
2018-11-10T03:55:02.974Z,9.30
2018-11-10T03:55:35.604Z,9.30
2018-11-10T03:56:08.239Z,9.40
2018-11-10T03:56:40.815Z,9.30
2018-11-10T03:57:13.411Z,9.40
2018-11-10T03:57:46.080Z,9.40
2018-11-10T03:58:18.710Z,9.40
2018-11-10T03:58:51.322Z,9.40
2018-11-10T03:59:23.961Z,9.50
2018-11-10T03:59:56.543Z,9.40
2018-11-10T04:00:29.163Z,9.40
2018-11-10T04:01:01.787Z,9.40
2018-11-10T04:01:34.371Z,9.30
2018-11-10T04:02:07.004Z,9.30
2018-11-10T04:02:40.347Z,9.30
2018-11-10T04:03:12.931Z,9.20
2018-11-10T04:03:45.506Z,9.20
2018-11-10T04:04:18.178Z,9.20
2018-11-10T04:04:50.823Z,9.20
2018-11-10T04:05:23.448Z,9.10
2018-11-10T04:05:56.073Z,9.10
2018-11-10T04:06:28.675Z,9.20
2018-11-10T04:07:01.345Z,9.20
2018-11-10T04:07:33.955Z,9.20
2018-11-10T04:08:06.572Z,9.20
2018-11-10T04:08:39.191Z,9.20
2018-11-10T04:09:11.800Z,9.10
2018-11-10T04:09:44.440Z,9.10
2018-11-10T04:10:17.059Z,9.10
2018-11-10T04:10:49.671Z,9.10
2018-11-10T04:11:22.268Z,9.10
2018-11-10T04:11:54.847Z,9.10
2018-11-10T04:12:27.488Z,9.10
2018-11-10T04:13:00.106Z,9.10
2018-11-10T04:13:32.678Z,9.20
2018-11-10T04:14:05.473Z,9.20
2018-11-10T04:14:38.088Z,9.20
2018-11-10T04:15:10.682Z,9.20
2018-11-10T04:15:43.341Z,9.20
2018-11-10T04:16:16.195Z,9.20
2018-11-10T04:16:48.806Z,9.20
2018-11-10T04:17:21.368Z,9.20
2018-11-10T04:17:54.000Z,9.20
2018-11-10T04:18:26.633Z,9.20
2018-11-10T04:18:59.230Z,9.20
2018-11-10T04:19:31.849Z,9.20
2018-11-10T04:20:05.743Z,9.20
2018-11-10T04:20:38.332Z,9.20
2018-11-10T04:21:10.971Z,9.10
2018-11-10T04:21:43.595Z,9.10
2018-11-10T04:22:20.718Z,9.10
2018-11-10T04:22:53.296Z,9.10
2018-11-10T04:23:25.871Z,9.10
2018-11-10T04:23:58.512Z,9.10
2018-11-10T04:24:31.100Z,9.10
2018-11-10T04:25:05.316Z,9.10
2018-11-10T04:25:37.907Z,9.10
2018-11-10T04:26:10.514Z,9.10
2018-11-10T04:26:43.173Z,9.10
2018-11-10T04:27:15.797Z,9.10
2018-11-10T04:27:48.404Z,9.10
2018-11-10T04:28:20.985Z,9.10
2018-11-10T04:28:53.555Z,9.10
2018-11-10T04:29:26.179Z,9.10
2018-11-10T04:29:58.751Z,9.10
2018-11-10T04:30:31.336Z,9.10
2018-11-10T04:31:04.213Z,9.10
2018-11-10T04:31:36.869Z,9.00
2018-11-10T04:32:09.508Z,9.00
2018-11-10T04:32:42.082Z,9.00
2018-11-10T04:33:14.667Z,9.00
2018-11-10T04:33:47.271Z,9.00
2018-11-10T04:34:19.870Z,9.00
2018-11-10T04:34:52.506Z,9.00
2018-11-10T04:35:25.107Z,8.90
2018-11-10T04:35:57.735Z,8.90
2018-11-10T04:36:30.431Z,8.90
2018-11-10T04:37:03.034Z,9.00
2018-11-10T04:37:35.938Z,9.00
2018-11-10T04:38:08.550Z,9.10
2018-11-10T04:38:41.170Z,9.00
2018-11-10T04:39:13.796Z,9.10
2018-11-10T04:39:46.463Z,9.00
2018-11-10T04:40:19.062Z,9.00
2018-11-10T04:40:51.670Z,9.00
2018-11-10T04:41:24.293Z,9.10
2018-11-10T04:41:56.928Z,9.10
2018-11-10T04:42:29.514Z,9.10
2018-11-10T04:43:02.163Z,9.10
2018-11-10T04:43:34.778Z,9.10
2018-11-10T04:44:07.402Z,9.10
2018-11-10T04:44:40.004Z,9.10
2018-11-10T04:45:12.608Z,9.10
2018-11-10T04:45:45.235Z,9.10
2018-11-10T04:46:17.912Z,9.10
2018-11-10T04:46:50.533Z,9.10
2018-11-10T04:47:23.184Z,9.10
2018-11-10T04:47:55.816Z,9.10
2018-11-10T04:48:28.434Z,9.10
2018-11-10T04:49:01.010Z,9.10
2018-11-10T04:49:33.667Z,9.10
2018-11-10T04:50:07.706Z,9.10
2018-11-10T04:50:40.349Z,9.10
2018-11-10T04:51:12.965Z,9.10
2018-11-10T04:51:45.547Z,9.10
2018-11-10T04:52:18.185Z,9.10
2018-11-10T04:52:50.797Z,9.10
2018-11-10T04:53:23.394Z,9.10
2018-11-10T04:53:56.041Z,9.10
2018-11-10T04:54:28.664Z,9.20
2018-11-10T04:55:01.271Z,9.30
2018-11-10T04:55:33.876Z,9.30
2018-11-10T04:56:06.475Z,9.30
2018-11-10T04:56:39.095Z,9.40
2018-11-10T04:57:11.738Z,9.40
2018-11-10T04:57:44.346Z,9.40
2018-11-10T04:58:16.938Z,9.40
2018-11-10T04:58:49.578Z,9.40
2018-11-10T04:59:22.204Z,9.40
2018-11-10T04:59:54.787Z,9.40
2018-11-10T05:00:27.386Z,9.40
2018-11-10T05:01:00.023Z,9.30
2018-11-10T05:01:32.611Z,9.30
2018-11-10T05:02:05.299Z,9.30
2018-11-10T05:02:37.908Z,9.20
2018-11-10T05:03:10.529Z,9.20
2018-11-10T05:03:43.124Z,9.10
2018-11-10T05:04:15.757Z,9.20
2018-11-10T05:04:48.391Z,9.20
2018-11-10T05:05:21.006Z,9.20
2018-11-10T05:05:53.644Z,9.20
2018-11-10T05:06:26.222Z,9.20
2018-11-10T05:06:58.837Z,9.20
2018-11-10T05:07:31.418Z,9.20
2018-11-10T05:08:04.144Z,9.10
2018-11-10T05:08:36.757Z,9.20
2018-11-10T05:09:10.260Z,9.10
2018-11-10T05:09:42.843Z,9.10
2018-11-10T05:10:15.483Z,9.10
2018-11-10T05:10:48.087Z,9.10
2018-11-10T05:11:20.677Z,9.10
2018-11-10T05:11:53.361Z,9.00
2018-11-10T05:12:25.982Z,9.00
2018-11-10T05:12:58.624Z,9.00
2018-11-10T05:13:31.244Z,9.00
2018-11-10T05:14:03.974Z,9.00
2018-11-10T05:14:36.592Z,8.90
2018-11-10T05:15:10.648Z,9.00
2018-11-10T05:15:43.269Z,8.90
2018-11-10T05:16:15.838Z,8.90
2018-11-10T05:16:48.449Z,8.90
2018-11-10T05:17:21.075Z,8.90
2018-11-10T05:17:53.694Z,8.90
2018-11-10T05:18:26.263Z,8.80
2018-11-10T05:18:58.858Z,8.90
2018-11-10T05:19:31.422Z,8.80
2018-11-10T05:20:04.417Z,8.90
2018-11-10T05:20:37.044Z,8.80
2018-11-10T05:21:09.694Z,8.80
2018-11-10T05:21:42.310Z,8.80
2018-11-10T05:22:14.963Z,8.80
2018-11-10T05:22:47.559Z,8.80
2018-11-10T05:23:20.184Z,8.80
2018-11-10T05:23:52.883Z,8.80
2018-11-10T05:24:25.511Z,8.90
2018-11-10T05:24:58.144Z,8.80
2018-11-10T05:25:30.742Z,8.80
2018-11-10T05:26:03.314Z,8.80
2018-11-10T05:26:35.920Z,8.80
2018-11-10T05:27:08.568Z,8.80
2018-11-10T05:27:41.178Z,8.80
2018-11-10T05:28:13.808Z,8.90
2018-11-10T05:28:46.398Z,8.90
2018-11-10T05:29:19.040Z,8.90
2018-11-10T05:29:51.634Z,8.90
2018-11-10T05:30:24.212Z,9.00
2018-11-10T05:30:56.842Z,9.00
2018-11-10T05:31:29.411Z,8.90
2018-11-10T05:32:02.072Z,9.00
2018-11-10T05:32:34.671Z,9.00
2018-11-10T05:33:07.296Z,9.00
2018-11-10T05:33:39.883Z,9.00
2018-11-10T05:34:13.188Z,9.00
2018-11-10T05:34:45.807Z,9.00
2018-11-10T05:35:18.434Z,9.00
2018-11-10T05:35:51.074Z,9.00
2018-11-10T05:36:23.689Z,9.00
2018-11-10T05:36:56.426Z,8.90
2018-11-10T05:37:29.070Z,9.00
2018-11-10T05:38:01.711Z,8.90
2018-11-10T05:38:34.295Z,8.90
2018-11-10T05:39:07.995Z,8.90
2018-11-10T05:39:40.623Z,8.90
2018-11-10T05:40:13.210Z,9.00
2018-11-10T05:40:45.806Z,9.00
2018-11-10T05:41:18.397Z,9.10
2018-11-10T05:41:51.024Z,9.10
2018-11-10T05:42:23.610Z,9.10
2018-11-10T05:42:56.249Z,9.10
2018-11-10T05:43:28.865Z,9.10
2018-11-10T05:44:01.512Z,9.20
2018-11-10T05:44:34.131Z,9.10
2018-11-10T05:45:06.849Z,9.10
2018-11-10T05:45:39.485Z,9.10
2018-11-10T05:46:12.086Z,9.10
2018-11-10T05:46:44.677Z,9.10
2018-11-10T05:47:17.289Z,9.10
2018-11-10T05:47:49.895Z,9.10
2018-11-10T05:48:22.565Z,9.10
2018-11-10T05:48:55.151Z,9.20
2018-11-10T05:49:27.748Z,9.20
2018-11-10T05:50:00.402Z,9.20
2018-11-10T05:50:33.049Z,9.20
2018-11-10T05:51:05.694Z,9.20
2018-11-10T05:51:38.275Z,9.20
2018-11-10T05:52:10.876Z,9.20
2018-11-10T05:52:43.486Z,9.20
2018-11-10T05:53:16.110Z,9.20
2018-11-10T05:53:48.763Z,9.10
2018-11-10T05:54:21.339Z,9.10
2018-11-10T05:54:53.927Z,9.20
2018-11-10T05:55:26.552Z,9.20
2018-11-10T05:55:59.143Z,9.20
2018-11-10T05:56:31.766Z,9.20
2018-11-10T05:57:04.527Z,9.20
2018-11-10T05:57:37.450Z,9.10
2018-11-10T05:58:10.060Z,9.10
2018-11-10T05:58:42.636Z,9.10
2018-11-10T05:59:15.271Z,9.10
2018-11-10T05:59:47.890Z,9.00
2018-11-10T06:00:20.500Z,9.00
2018-11-10T06:00:53.106Z,9.00
2018-11-10T06:01:25.731Z,8.90
2018-11-10T06:01:58.386Z,8.90
2018-11-10T06:02:30.995Z,8.90
2018-11-10T06:03:03.630Z,8.90
2018-11-10T06:03:36.639Z,8.90
2018-11-10T06:04:09.235Z,8.90
2018-11-10T06:04:41.854Z,8.90
2018-11-10T06:05:14.471Z,8.90
2018-11-10T06:05:47.098Z,8.80
2018-11-10T06:06:19.710Z,8.80
2018-11-10T06:06:52.324Z,8.80
2018-11-10T06:07:24.911Z,8.90
2018-11-10T06:07:57.510Z,8.90
2018-11-10T06:08:30.167Z,8.90
2018-11-10T06:09:03.112Z,8.90
2018-11-10T06:09:35.675Z,9.00
2018-11-10T06:10:09.693Z,8.90
2018-11-10T06:10:42.197Z,8.90
2018-11-10T06:11:14.852Z,8.90
2018-11-10T06:11:47.454Z,9.00
2018-11-10T06:12:20.082Z,9.00
2018-11-10T06:12:52.701Z,9.00
2018-11-10T06:13:25.298Z,9.00
2018-11-10T06:13:57.879Z,9.10
2018-11-10T06:14:30.499Z,9.00
2018-11-10T06:15:03.289Z,9.10
2018-11-10T06:15:35.968Z,9.00
2018-11-10T06:16:08.567Z,9.00
2018-11-10T06:16:41.138Z,9.00
2018-11-10T06:17:13.756Z,9.00
2018-11-10T06:17:46.335Z,9.00
2018-11-10T06:18:18.947Z,8.90
2018-11-10T06:18:51.593Z,8.90
2018-11-10T06:19:24.228Z,8.90
2018-11-10T06:19:56.862Z,8.90
2018-11-10T06:20:29.448Z,8.90
2018-11-10T06:21:02.071Z,8.90
2018-11-10T06:21:34.668Z,8.90
2018-11-10T06:22:07.266Z,8.90
2018-11-10T06:22:39.943Z,8.90
2018-11-10T06:23:12.568Z,8.90
2018-11-10T06:23:45.186Z,8.90
2018-11-10T06:24:17.813Z,9.10
2018-11-10T06:24:50.423Z,9.00
2018-11-10T06:25:23.024Z,9.10
2018-11-10T06:25:55.663Z,9.10
2018-11-10T06:26:28.726Z,9.10
2018-11-10T06:27:01.332Z,9.10
2018-11-10T06:27:33.934Z,9.10
2018-11-10T06:28:06.585Z,9.10
2018-11-10T06:28:39.225Z,9.10
2018-11-10T06:29:11.852Z,9.10
2018-11-10T06:29:44.475Z,9.10
2018-11-10T06:30:17.095Z,9.10
2018-11-10T06:30:49.704Z,9.10
2018-11-10T06:31:22.295Z,9.10
2018-11-10T06:31:54.930Z,9.10
2018-11-10T06:32:27.553Z,9.10
2018-11-10T06:33:00.232Z,9.10
2018-11-10T06:33:32.850Z,9.10
2018-11-10T06:34:05.496Z,9.10
2018-11-10T06:34:38.218Z,9.10
2018-11-10T06:35:11.277Z,9.10
2018-11-10T06:35:43.895Z,9.10
2018-11-10T06:36:16.530Z,9.10
2018-11-10T06:36:49.123Z,9.00
2018-11-10T06:37:21.859Z,9.00
2018-11-10T06:37:54.454Z,9.10
2018-11-10T06:38:27.101Z,9.00
2018-11-10T06:38:59.696Z,9.00
2018-11-10T06:39:32.327Z,9.00
2018-11-10T06:40:06.985Z,9.00
2018-11-10T06:40:39.601Z,9.00
2018-11-10T06:41:12.227Z,9.00
2018-11-10T06:41:44.843Z,9.10
2018-11-10T06:42:17.455Z,9.10
2018-11-10T06:42:50.064Z,9.10
2018-11-10T06:43:22.646Z,9.10
2018-11-10T06:43:55.238Z,9.10
2018-11-10T06:44:27.845Z,9.10
2018-11-10T06:45:00.438Z,9.10
2018-11-10T06:45:33.027Z,9.00
2018-11-10T06:46:05.656Z,9.00
2018-11-10T06:46:39.035Z,9.00
2018-11-10T06:47:11.718Z,8.90
2018-11-10T06:47:44.215Z,8.90
2018-11-10T06:48:16.819Z,8.90
2018-11-10T06:48:49.399Z,8.90
2018-11-10T06:49:22.011Z,8.90
2018-11-10T06:49:54.622Z,8.90
2018-11-10T06:50:27.202Z,8.90
2018-11-10T06:50:59.783Z,8.90
2018-11-10T06:51:32.402Z,8.90
2018-11-10T06:52:05.094Z,8.90
2018-11-10T06:52:37.751Z,8.90
2018-11-10T06:53:10.360Z,8.90
2018-11-10T06:53:43.034Z,8.90
2018-11-10T06:54:15.599Z,8.90
2018-11-10T06:54:48.162Z,8.90
2018-11-10T06:55:20.776Z,8.80
2018-11-10T06:55:53.388Z,8.80
2018-11-10T06:56:25.982Z,8.90
2018-11-10T06:56:58.579Z,8.80
2018-11-10T06:57:31.150Z,8.80
2018-11-10T06:58:04.116Z,8.80
2018-11-10T06:58:36.706Z,8.80
2018-11-10T06:59:09.317Z,8.80
2018-11-10T06:59:41.921Z,8.80
2018-11-10T07:00:15.305Z,8.80
2018-11-10T07:00:47.879Z,8.80
2018-11-10T07:01:20.488Z,8.80
2018-11-10T07:01:53.091Z,8.80
2018-11-10T07:02:25.658Z,8.80
2018-11-10T07:02:58.223Z,8.80
2018-11-10T07:03:30.911Z,8.80
2018-11-10T07:04:03.491Z,8.80
2018-11-10T07:04:36.144Z,8.70
2018-11-10T07:05:09.306Z,8.80
2018-11-10T07:05:41.919Z,8.80
2018-11-10T07:06:14.522Z,8.80
2018-11-10T07:06:47.134Z,8.80
2018-11-10T07:07:19.732Z,8.80
2018-11-10T07:07:52.322Z,8.80
2018-11-10T07:08:25.046Z,8.90
2018-11-10T07:08:57.669Z,8.90
2018-11-10T07:09:30.317Z,8.90
2018-11-10T07:10:02.921Z,9.00
2018-11-10T07:10:35.511Z,9.00
2018-11-10T07:11:08.091Z,9.00
2018-11-10T07:11:41.351Z,9.00
2018-11-10T07:12:13.936Z,9.00
2018-11-10T07:12:46.538Z,9.00
2018-11-10T07:13:19.167Z,9.00
2018-11-10T07:13:51.770Z,9.00
2018-11-10T07:14:24.364Z,9.00
2018-11-10T07:14:56.939Z,9.00